Williamsbridge, New York
Current Conditions -  °F | °C
As of 2:51 PM on Thursday 29 Jan 2015 (Local Time) from KLGA Reporting Station
Overcast Overcast  
Wind Chill: 22°   Ceiling: 11000
Heat Index: 30°   Visibility: 10mi
Dew Point: 17°   Wind: 9mph
Humidity: 59%   Direction: 190°S
Pressure: 30.2"   Gusts: NA
Location:  40.8778°N, 73.8721°W
Report Text: KLGA 291951Z 19008KT 10SM BKN110 OVC250 M01/M08 A3020 RMK AO2 SLP225 T10111083
Loading
Personal Weather Stations






























Interactive Weather Map New forecast layout! Learn more

10-Day Weather Forecast

Advertisements
Track Severe Weather on mobile